Time;durP1;ratioP1;P1;durP2;ratioP2;P2;SDS_P1;SDS_P2;PMS_P1;PMS_P2;Temp;Humidity;BMP_temperature;BMP_pressure;BME280_temperature;BME280_humidity;BME280_pressure;Samples;Min_cycle;Max_cycle;Signal;HPM_P1;HPM_P2
2022/10/28 07:24:40;;;;;;;;;;;13.00;99.90;;;;;;6172107;23;20843;-76
2022/10/28 08:25:30;;;;;;;;;;;14.80;99.90;;;;;;6185235;23;19923;-77
2022/10/28 08:28:19;;;;;;;;;;;14.80;99.90;;;;;;6135603;23;19943;-78
2022/10/28 08:34:28;;;;;;;;;;;;;;;;;;;;;
2022/10/28 08:47:24;;;;;;;;;;;15.10;99.90;;;;;;6008370;23;19986;-77
2022/10/28 09:08:49;;;;;;;;;;;15.10;99.90;;;;;;6185139;23;19914;-78
2022/10/28 09:32:10;;;;;;;;;;;15.40;99.90;;;;;;6181832;23;19920;-76
2022/10/28 09:34:42;;;;;;;;;;;15.40;99.90;;;;;;6134357;23;19916;-77
2022/10/28 09:37:14;;;;;;;;;;;15.50;99.90;;;;;;6134259;23;19927;-77
2022/10/28 09:39:45;;;;;;;;;;;15.60;99.90;;;;;;6158871;23;19966;-76
2022/10/28 09:42:16;;;;;;;;;;;15.60;99.90;;;;;;6158081;23;19913;-76
2022/10/28 09:45:16;;;;;;;;;;;15.60;99.90;;;;;;6158439;23;19916;-78
2022/10/28 09:47:44;;;;;;;;;;;15.70;99.90;;;;;;6135172;23;19917;-78
2022/10/28 09:50:32;;;;;;;;;;;15.70;99.90;;;;;;6135305;23;20322;-75
2022/10/28 15:31:30;;;;;;;;;;;16.90;99.90;;;;;;5777383;23;9093793;-72
2022/10/28 15:34:22;;;;;;;;;;;16.90;99.90;;;;;;6081604;23;19917;-78
2022/10/28 15:37:43;;;;;;;;;;;16.80;99.90;;;;;;6023886;23;19918;-77
2022/10/28 15:47:31;;;;;;;;;;;16.70;99.90;;;;;;5821683;24;19943;-81
2022/10/28 15:53:42;;;;;;;;;;;16.70;99.90;;;;;;5741234;25;19999;-79
2022/10/28 15:57:07;;;;;;;;;;;16.60;99.90;;;;;;5719365;24;20129;-77
2022/10/28 15:59:50;;;;;;;;;;;16.70;99.90;;;;;;5959029;23;19922;-76
2022/10/28 16:02:40;;;;;;;;;;;16.70;99.90;;;;;;5990253;23;19972;-76
2022/10/28 16:08:35;;;;;;;;;;;16.60;99.90;;;;;;6009792;23;19913;-79
2022/10/28 16:11:08;;;;;;;;;;;16.50;99.90;;;;;;5995396;23;19921;-75
2022/10/28 16:14:08;;;;;;;;;;;16.50;99.90;;;;;;6047417;23;19955;-75
2022/10/28 16:34:45;;;;;;;;;;;;;;;;;;;;;
2022/10/28 16:41:29;;;;;;;;;;;16.30;99.90;;;;;;6161782;23;19916;-76
2022/10/28 16:51:21;;;;;;;;;;;16.20;99.90;;;;;;6191263;23;19951;-79
2022/10/28 16:54:06;;;;;;;;;;;;;;;;;;;;;
2022/10/28 17:00:26;;;;;;;;;;;16.10;99.90;;;;;;6066995;23;19914;-78
2022/10/28 17:25:50;;;;;;;;;;;16.00;99.90;;;;;;6183952;23;20347;-76
2022/10/28 18:00:18;;;;;;;;;;;15.80;99.90;;;;;;6180989;23;19968;-75
2022/10/28 18:02:43;;;;;;;;;;;15.80;99.90;;;;;;6157189;23;20343;-71
2022/10/28 18:05:09;;;;;;;;;;;15.80;99.90;;;;;;6158736;23;19922;-71
2022/10/28 18:07:34;;;;;;;;;;;15.90;99.90;;;;;;6158940;23;19912;-71
2022/10/28 18:10:00;;;;;;;;;;;15.90;99.90;;;;;;6160625;23;19912;-71
2022/10/28 18:12:26;;;;;;;;;;;15.90;99.90;;;;;;6160494;23;19956;-72
2022/10/28 18:14:51;;;;;;;;;;;15.90;99.90;;;;;;6136696;23;19928;-71
2022/10/28 18:17:17;;;;;;;;;;;15.90;99.90;;;;;;6134843;23;20303;-71
2022/10/28 18:19:43;;;;;;;;;;;15.90;99.90;;;;;;6136126;23;19916;-71
2022/10/28 18:22:08;;;;;;;;;;;15.90;99.90;;;;;;6161102;23;19912;-70
2022/10/28 18:24:37;;;;;;;;;;;15.80;99.90;;;;;;6136423;23;19912;-72
2022/10/28 18:30:25;;;;;;;;;;;15.80;99.90;;;;;;6186976;23;20370;-72
2022/10/28 18:33:36;;;;;;;;;;;;;;;;;;;;;
2022/10/28 18:36:19;;;;;;;;;;;15.70;99.90;;;;;;6148121;23;19919;-74
2022/10/28 18:38:45;;;;;;;;;;;15.70;99.90;;;;;;6135978;23;19947;-74
2022/10/28 20:38:55;;;;;;;;;;;14.90;99.90;;;;;;6175437;23;19912;-72
2022/10/28 20:41:22;;;;;;;;;;;14.90;99.90;;;;;;6135141;23;19924;-73
2022/10/28 20:43:48;;;;;;;;;;;14.90;99.90;;;;;;6135107;23;20007;-74
2022/10/28 20:46:13;;;;;;;;;;;14.90;99.90;;;;;;6135212;23;19920;-74
2022/10/28 20:48:42;;;;;;;;;;;14.90;99.90;;;;;;6135209;23;19974;-79
2022/10/28 20:51:08;;;;;;;;;;;14.80;99.90;;;;;;6135156;23;20247;-74
2022/10/28 20:53:37;;;;;;;;;;;14.80;99.90;;;;;;6135173;23;19956;-74
2022/10/28 20:56:03;;;;;;;;;;;14.80;99.90;;;;;;6159489;23;19921;-72
2022/10/28 20:58:30;;;;;;;;;;;14.70;99.90;;;;;;6134722;23;19916;-73
2022/10/28 21:01:03;;;;;;;;;;;14.60;99.90;;;;;;6159125;23;19916;-72
2022/10/28 21:03:28;;;;;;;;;;;14.60;99.90;;;;;;6159169;23;19916;-72
2022/10/28 21:05:54;;;;;;;;;;;14.40;99.90;;;;;;6185916;23;19920;-73
2022/10/28 21:08:20;;;;;;;;;;;14.50;99.90;;;;;;6134923;23;20251;-73
2022/10/28 21:10:45;;;;;;;;;;;14.40;99.90;;;;;;6159457;23;19924;-73
2022/10/28 21:13:11;;;;;;;;;;;14.30;99.90;;;;;;6134371;23;20298;-73
2022/10/28 21:15:39;;;;;;;;;;;14.30;99.90;;;;;;6159621;23;19924;-75
2022/10/28 21:18:06;;;;;;;;;;;14.20;99.90;;;;;;6133724;23;19917;-77
2022/10/28 21:20:35;;;;;;;;;;;14.20;99.90;;;;;;6134800;23;20350;-74
2022/10/28 21:23:12;;;;;;;;;;;14.10;99.90;;;;;;6134724;23;19916;-76
2022/10/28 21:25:41;;;;;;;;;;;14.10;99.90;;;;;;6134032;23;19999;-77
2022/10/28 21:28:07;;;;;;;;;;;14.00;99.90;;;;;;6110237;23;19916;-74
2022/10/28 21:30:32;;;;;;;;;;;14.00;99.90;;;;;;6134968;23;19966;-72
2022/10/28 21:32:58;;;;;;;;;;;14.00;99.90;;;;;;6159118;23;19923;-74
2022/10/28 21:35:25;;;;;;;;;;;14.00;99.90;;;;;;6159421;23;19924;-74
2022/10/28 21:37:52;;;;;;;;;;;13.90;99.90;;;;;;6134860;23;19920;-72
2022/10/28 21:40:18;;;;;;;;;;;13.90;99.90;;;;;;6159183;23;19920;-73
2022/10/28 21:42:46;;;;;;;;;;;13.80;99.90;;;;;;6159526;23;19932;-74
2022/10/28 21:45:48;;;;;;;;;;;;;;;;;;;;;
2022/10/28 21:49:17;;;;;;;;;;;;;;;;;;;;;
2022/10/28 21:51:45;;;;;;;;;;;13.70;99.90;;;;;;6158691;23;19920;-74
2022/10/28 21:54:11;;;;;;;;;;;13.60;99.90;;;;;;6136430;23;19954;-73
2022/10/28 21:56:37;;;;;;;;;;;13.60;99.90;;;;;;6136708;23;19991;-75
2022/10/28 21:59:02;;;;;;;;;;;13.50;99.90;;;;;;6161036;23;19916;-75
2022/10/28 22:01:31;;;;;;;;;;;13.50;99.90;;;;;;6137170;23;19916;-73
2022/10/28 22:03:59;;;;;;;;;;;13.50;99.90;;;;;;6136267;23;19943;-75
2022/10/28 22:06:25;;;;;;;;;;;13.40;99.90;;;;;;6136262;23;19996;-75
2022/10/28 22:08:51;;;;;;;;;;;13.40;99.90;;;;;;6136876;23;19948;-73
2022/10/28 22:11:18;;;;;;;;;;;13.30;99.90;;;;;;6136479;23;20275;-74
2022/10/28 22:13:44;;;;;;;;;;;13.20;99.90;;;;;;6160589;23;19916;-74
2022/10/28 22:16:11;;;;;;;;;;;13.10;99.90;;;;;;6161281;23;19951;-76
2022/10/28 22:18:37;;;;;;;;;;;13.10;99.90;;;;;;6160727;23;19955;-74
2022/10/28 22:21:10;;;;;;;;;;;13.00;99.90;;;;;;6136383;23;19916;-75
